createdAt,value
2022-10-13T00:01:38.405Z,35.70
2022-10-13T00:04:07.864Z,34.40
2022-10-13T00:06:37.172Z,41.97
2022-10-13T00:09:06.103Z,35.53
2022-10-13T00:11:35.448Z,31.20
2022-10-13T00:14:07.872Z,31.67
2022-10-13T00:16:38.124Z,29.43
2022-10-13T00:19:11.702Z,39.83
2022-10-13T00:21:43.639Z,34.13
2022-10-13T00:24:12.892Z,28.60
2022-10-13T00:26:42.143Z,37.10
2022-10-13T00:29:17.524Z,34.27
2022-10-13T00:31:47.500Z,31.03
2022-10-13T00:34:17.027Z,32.23
2022-10-13T00:36:46.299Z,35.07
2022-10-13T00:39:15.583Z,37.20
2022-10-13T00:41:44.935Z,30.90
2022-10-13T00:44:47.171Z,36.40
2022-10-13T00:47:18.227Z,39.87
2022-10-13T00:49:47.815Z,48.63
2022-10-13T00:52:19.498Z,44.57
2022-10-13T00:54:49.927Z,44.30
2022-10-13T00:57:21.170Z,43.20
2022-10-13T00:59:51.140Z,37.07
2022-10-13T01:02:22.011Z,33.70
2022-10-13T01:04:53.239Z,34.77
2022-10-13T01:07:22.604Z,37.77
2022-10-13T01:09:52.197Z,34.40
2022-10-13T01:12:33.295Z,37.17
2022-10-13T01:15:10.070Z,40.83
2022-10-13T01:17:48.611Z,45.00
2022-10-13T01:20:51.070Z,34.63
2022-10-13T01:23:51.422Z,35.37
2022-10-13T01:26:44.215Z,38.17
2022-10-13T01:29:30.323Z,37.40
2022-10-13T01:32:08.843Z,39.77
2022-10-13T01:34:46.182Z,29.03
2022-10-13T01:37:23.746Z,33.57
2022-10-13T01:39:59.718Z,33.17
2022-10-13T01:42:36.500Z,32.87
2022-10-13T01:45:11.926Z,31.23
2022-10-13T01:47:43.770Z,32.50
2022-10-13T01:50:14.883Z,31.47
2022-10-13T01:52:44.487Z,33.73
2022-10-13T01:55:15.634Z,30.17
2022-10-13T01:57:46.834Z,33.37
2022-10-13T02:00:18.486Z,40.27
2022-10-13T02:03:02.945Z,40.00
2022-10-13T02:05:44.617Z,40.70
2022-10-13T02:08:21.722Z,38.37
2022-10-13T02:10:57.119Z,34.83
2022-10-13T02:13:30.587Z,40.97
2022-10-13T02:16:02.229Z,41.77
2022-10-13T02:18:36.422Z,46.57
2022-10-13T02:21:08.430Z,45.73
2022-10-13T02:23:38.454Z,42.80
2022-10-13T02:26:07.933Z,36.83
2022-10-13T02:28:39.325Z,47.73
2022-10-13T02:31:11.741Z,45.87
2022-10-13T02:33:43.041Z,44.10
2022-10-13T02:36:12.810Z,46.17
2022-10-13T02:38:42.081Z,50.97
2022-10-13T02:41:11.553Z,53.63
2022-10-13T02:43:40.605Z,48.23
2022-10-13T02:46:10.445Z,55.87
2022-10-13T02:48:39.497Z,61.67
2022-10-13T02:51:10.447Z,60.10
2022-10-13T02:53:39.739Z,59.03
2022-10-13T02:56:09.541Z,57.00
2022-10-13T02:58:39.865Z,51.47
2022-10-13T03:01:09.684Z,54.13
2022-10-13T03:03:39.160Z,57.13
2022-10-13T03:06:11.118Z,54.10
2022-10-13T03:08:40.989Z,55.67
2022-10-13T03:11:10.332Z,52.20
2022-10-13T03:13:39.857Z,55.33
2022-10-13T03:16:09.522Z,49.47
2022-10-13T03:18:38.966Z,48.53
2022-10-13T03:21:10.368Z,53.63
2022-10-13T03:23:41.572Z,48.97
2022-10-13T03:26:10.873Z,46.53
2022-10-13T03:28:40.444Z,48.57
2022-10-13T03:31:12.448Z,52.27
2022-10-13T03:33:42.604Z,43.37
2022-10-13T03:36:15.089Z,44.90
2022-10-13T03:38:44.972Z,47.43
2022-10-13T03:41:16.448Z,55.73
2022-10-13T03:43:47.116Z,45.63
2022-10-13T03:46:18.217Z,48.50
2022-10-13T03:48:48.823Z,48.10
2022-10-13T03:51:22.112Z,45.50
2022-10-13T03:53:52.725Z,47.83
2022-10-13T03:56:23.772Z,43.57
2022-10-13T03:58:55.064Z,48.73
2022-10-13T04:01:25.530Z,49.37
2022-10-13T04:03:56.382Z,46.53
2022-10-13T04:06:28.404Z,41.27
2022-10-13T04:08:58.388Z,37.13
2022-10-13T04:11:27.760Z,33.77
2022-10-13T04:13:59.142Z,44.73
2022-10-13T04:16:30.621Z,38.33
2022-10-13T04:19:03.343Z,43.93
2022-10-13T04:21:35.692Z,54.77
2022-10-13T04:24:06.509Z,53.50
2022-10-13T04:26:37.736Z,38.60
2022-10-13T04:29:12.419Z,45.00
2022-10-13T04:31:43.088Z,38.17
2022-10-13T04:34:12.937Z,48.20
2022-10-13T04:36:43.804Z,48.10
2022-10-13T04:39:13.183Z,42.50
2022-10-13T04:41:42.311Z,44.00
2022-10-13T04:44:11.934Z,70.83
2022-10-13T04:46:41.439Z,60.17
2022-10-13T04:49:10.939Z,41.90
2022-10-13T04:51:40.771Z,51.13
2022-10-13T04:54:11.867Z,49.47
2022-10-13T04:56:41.096Z,61.90
2022-10-13T04:59:10.319Z,52.00
2022-10-13T05:01:40.096Z,59.10
2022-10-13T05:04:14.203Z,56.13
2022-10-13T05:07:12.603Z,55.00
2022-10-13T05:09:35.371Z,50.40
2022-10-13T05:12:10.021Z,64.37
2022-10-13T05:14:39.289Z,50.93
2022-10-13T05:17:10.125Z,60.47
2022-10-13T05:19:39.597Z,57.60
2022-10-13T05:22:08.846Z,75.50
2022-10-13T05:24:41.170Z,50.33
2022-10-13T05:27:13.320Z,68.87
2022-10-13T05:29:43.170Z,70.60
2022-10-13T05:32:12.657Z,55.77
2022-10-13T05:34:42.042Z,58.03
2022-10-13T05:37:11.534Z,62.53
2022-10-13T05:39:48.635Z,69.53
2022-10-13T05:42:18.811Z,67.13
2022-10-13T05:44:48.675Z,70.60
2022-10-13T05:47:17.792Z,75.50
2022-10-13T05:49:47.382Z,81.30
2022-10-13T05:52:17.248Z,68.60
2022-10-13T05:54:50.762Z,84.43
2022-10-13T05:57:25.786Z,77.17
2022-10-13T05:59:59.935Z,79.30
2022-10-13T06:02:35.773Z,78.77
2022-10-13T06:05:06.914Z,89.00
2022-10-13T06:07:36.428Z,80.90
2022-10-13T06:10:08.525Z,86.03
2022-10-13T06:12:38.955Z,94.73
2022-10-13T06:15:09.474Z,89.73
2022-10-13T06:17:39.786Z,79.57
2022-10-13T06:20:11.164Z,82.97
2022-10-13T06:22:41.403Z,106.80
2022-10-13T06:25:14.245Z,88.73
2022-10-13T06:27:43.990Z,90.43
2022-10-13T06:30:13.973Z,109.70
2022-10-13T06:32:43.033Z,120.13
2022-10-13T06:35:12.631Z,107.77
2022-10-13T06:37:41.994Z,110.27
2022-10-13T06:40:15.269Z,123.57
2022-10-13T06:42:45.397Z,118.87
2022-10-13T06:45:16.225Z,125.43
2022-10-13T06:47:45.788Z,126.90
2022-10-13T06:50:15.024Z,126.57
2022-10-13T06:52:44.764Z,147.27
2022-10-13T06:55:15.744Z,133.47
2022-10-13T06:57:45.960Z,144.73
2022-10-13T07:00:15.453Z,146.00
2022-10-13T07:02:45.885Z,146.00
2022-10-13T07:05:15.379Z,147.80
2022-10-13T07:07:44.595Z,148.97
2022-10-13T07:10:16.192Z,141.67
2022-10-13T07:12:45.428Z,157.20
2022-10-13T07:15:15.208Z,144.53
2022-10-13T07:17:44.438Z,158.20
2022-10-13T07:20:14.207Z,145.10
2022-10-13T07:22:44.562Z,157.80
2022-10-13T07:25:16.220Z,160.53
2022-10-13T07:27:46.043Z,149.73
2022-10-13T07:30:15.815Z,152.27
2022-10-13T07:32:46.807Z,141.93
2022-10-13T07:35:16.463Z,145.70
2022-10-13T07:37:46.284Z,143.80
2022-10-13T07:40:16.933Z,129.17
2022-10-13T07:42:46.588Z,125.17
2022-10-13T07:45:15.998Z,106.67
2022-10-13T07:47:45.710Z,91.40
2022-10-13T07:50:14.811Z,90.97
2022-10-13T07:52:43.643Z,74.57
2022-10-13T07:55:14.071Z,72.13
2022-10-13T07:57:44.902Z,61.33
2022-10-13T08:00:14.907Z,52.63
2022-10-13T08:02:43.911Z,52.40
2022-10-13T08:05:13.306Z,41.33
2022-10-13T08:07:42.746Z,37.83
2022-10-13T08:10:12.168Z,34.30
2022-10-13T08:12:41.810Z,39.58
2022-10-13T08:15:13.592Z,35.85
2022-10-13T08:17:43.434Z,34.55
2022-10-13T08:20:14.365Z,33.20
2022-10-13T08:22:43.987Z,42.72
2022-10-13T08:25:14.162Z,37.08
2022-10-13T08:27:51.197Z,48.30
2022-10-13T08:30:22.981Z,36.25
2022-10-13T08:32:52.454Z,33.10
2022-10-13T08:35:21.325Z,35.13
2022-10-13T08:37:50.534Z,35.35
2022-10-13T08:40:23.292Z,27.73
2022-10-13T08:42:57.985Z,31.23
2022-10-13T08:45:41.384Z,31.05
2022-10-13T08:48:15.818Z,29.77
2022-10-13T08:50:47.984Z,30.83
2022-10-13T08:53:24.741Z,29.00
2022-10-13T08:55:57.925Z,29.27
2022-10-13T08:58:30.394Z,29.25
2022-10-13T09:01:12.915Z,21.38
2022-10-13T09:03:51.666Z,29.15
2022-10-13T09:06:29.026Z,26.77
2022-10-13T09:08:59.960Z,22.50
2022-10-13T09:11:30.792Z,23.17
2022-10-13T09:14:01.984Z,22.90
2022-10-13T09:16:39.382Z,24.65
2022-10-13T09:19:24.279Z,18.42
2022-10-13T09:21:55.776Z,24.60
2022-10-13T09:24:26.535Z,22.85
2022-10-13T09:27:07.367Z,23.80
2022-10-13T09:29:40.807Z,24.05
2022-10-13T09:32:21.999Z,18.73
2022-10-13T09:34:52.353Z,23.00
2022-10-13T09:37:23.503Z,24.45
2022-10-13T09:40:04.156Z,20.40
2022-10-13T09:42:35.110Z,22.67
2022-10-13T09:45:17.435Z,23.85
2022-10-13T09:47:56.305Z,17.85
2022-10-13T09:50:27.403Z,17.10
2022-10-13T09:53:17.987Z,20.85
2022-10-13T09:55:50.276Z,19.92
2022-10-13T09:58:27.886Z,18.90
2022-10-13T10:00:57.832Z,21.13
2022-10-13T10:03:34.014Z,20.73
2022-10-13T10:06:05.785Z,20.13
2022-10-13T10:09:02.020Z,16.95
2022-10-13T10:11:35.759Z,16.73
2022-10-13T10:14:18.062Z,19.52
2022-10-13T10:16:52.857Z,17.45
2022-10-13T10:19:31.314Z,17.70
2022-10-13T10:22:09.605Z,13.32
2022-10-13T10:24:48.478Z,17.20
2022-10-13T10:27:21.369Z,19.63
2022-10-13T10:29:55.376Z,20.02
2022-10-13T10:32:32.735Z,18.77
2022-10-13T10:35:13.053Z,18.10
2022-10-13T10:38:05.090Z,18.08
2022-10-13T10:40:42.431Z,19.67
2022-10-13T10:43:44.786Z,18.75
2022-10-13T10:46:19.175Z,16.90
2022-10-13T10:48:50.873Z,15.98
2022-10-13T10:51:24.925Z,18.35
2022-10-13T10:54:03.969Z,19.95
2022-10-13T10:56:37.418Z,18.73
2022-10-13T10:59:26.613Z,19.85
2022-10-13T11:02:12.041Z,14.90
2022-10-13T11:04:44.937Z,19.70
2022-10-13T11:07:44.377Z,14.50
2022-10-13T11:10:22.910Z,16.10
2022-10-13T11:13:18.430Z,16.45
2022-10-13T11:15:48.758Z,14.82
2022-10-13T11:18:55.368Z,13.60
2022-10-13T11:22:28.027Z,15.27
2022-10-13T11:25:40.088Z,20.88
2022-10-13T11:28:39.133Z,15.75
2022-10-13T11:31:35.957Z,16.90
2022-10-13T11:34:31.362Z,13.40
2022-10-13T11:37:04.830Z,11.57
2022-10-13T11:40:01.548Z,13.15
2022-10-13T11:43:05.299Z,13.35
2022-10-13T11:45:59.711Z,17.50
2022-10-13T11:49:08.008Z,12.35
2022-10-13T11:51:53.179Z,13.43
2022-10-13T11:54:32.001Z,14.82
2022-10-13T11:57:06.317Z,14.07
2022-10-13T11:59:47.240Z,12.20
2022-10-13T12:02:19.572Z,15.95
2022-10-13T12:05:03.243Z,13.80
2022-10-13T12:07:36.784Z,15.00
2022-10-13T12:10:10.580Z,13.70
2022-10-13T12:12:41.035Z,9.07
2022-10-13T12:15:32.695Z,13.48
2022-10-13T12:18:03.165Z,14.27
2022-10-13T12:20:35.016Z,20.80
2022-10-13T12:23:06.611Z,9.95
2022-10-13T12:25:37.955Z,13.05
2022-10-13T12:28:08.848Z,15.50
2022-10-13T12:30:41.367Z,16.42
2022-10-13T12:33:25.970Z,13.65
2022-10-13T12:35:56.482Z,14.07
2022-10-13T12:38:26.287Z,13.10
2022-10-13T12:40:56.794Z,11.82
2022-10-13T12:43:28.484Z,10.82
2022-10-13T12:46:00.235Z,16.27
2022-10-13T12:48:34.755Z,10.75
2022-10-13T12:51:28.411Z,10.60
2022-10-13T12:53:59.014Z,16.48
2022-10-13T12:56:33.527Z,15.45
2022-10-13T12:59:02.872Z,19.05
2022-10-13T13:01:35.712Z,12.30
2022-10-13T13:04:21.158Z,14.70
2022-10-13T13:06:59.981Z,10.50
2022-10-13T13:09:31.665Z,11.32
2022-10-13T13:12:23.455Z,15.50
2022-10-13T13:14:55.499Z,13.98
2022-10-13T13:17:57.026Z,12.40
2022-10-13T13:20:30.393Z,9.93
2022-10-13T13:23:00.156Z,16.48
2022-10-13T13:25:31.030Z,12.40
2022-10-13T13:28:05.642Z,10.85
2022-10-13T13:30:35.817Z,12.00
2022-10-13T13:35:40.777Z,10.60
2022-10-13T13:38:11.722Z,11.38
2022-10-13T13:40:40.865Z,11.13
2022-10-13T13:43:14.692Z,11.65
2022-10-13T13:45:44.236Z,12.80
2022-10-13T13:48:15.586Z,12.98
2022-10-13T13:50:44.602Z,12.88
2022-10-13T13:53:13.639Z,11.85
2022-10-13T13:55:46.591Z,14.27
2022-10-13T13:58:18.011Z,10.73
2022-10-13T14:00:47.433Z,20.02
2022-10-13T14:03:19.544Z,14.68
2022-10-13T14:05:48.748Z,12.73
2022-10-13T14:08:21.452Z,12.65
2022-10-13T14:10:50.311Z,12.13
2022-10-13T14:13:20.560Z,10.05
2022-10-13T14:15:58.700Z,12.57
2022-10-13T14:18:29.835Z,12.98
2022-10-13T14:20:59.616Z,19.05
2022-10-13T14:23:29.855Z,11.98
2022-10-13T14:25:59.399Z,10.90
2022-10-13T14:28:31.904Z,12.20
2022-10-13T14:31:01.603Z,9.93
2022-10-13T14:33:33.280Z,10.02
2022-10-13T14:36:02.971Z,10.05
2022-10-13T14:38:32.141Z,10.10
2022-10-13T14:41:01.488Z,14.18
2022-10-13T14:43:30.677Z,10.95
2022-10-13T14:46:03.935Z,13.63
2022-10-13T14:48:34.525Z,12.38
2022-10-13T14:51:07.130Z,13.90
2022-10-13T14:53:37.125Z,11.43
2022-10-13T14:56:18.943Z,10.48
2022-10-13T14:58:53.683Z,11.75
2022-10-13T15:01:22.829Z,12.80
2022-10-13T15:03:53.763Z,14.15
2022-10-13T15:06:25.507Z,11.23
2022-10-13T15:08:55.246Z,15.18
2022-10-13T15:11:26.537Z,13.57
2022-10-13T15:13:56.922Z,12.40
2022-10-13T15:16:29.607Z,14.40
2022-10-13T15:19:00.462Z,12.52
2022-10-13T15:21:29.899Z,11.25
2022-10-13T15:24:02.142Z,14.48
2022-10-13T15:26:31.542Z,10.43
2022-10-13T15:29:01.463Z,16.05
2022-10-13T15:31:31.633Z,15.13
2022-10-13T15:34:03.562Z,15.30
2022-10-13T15:36:33.190Z,13.10
2022-10-13T15:39:02.336Z,12.23
2022-10-13T15:41:31.428Z,15.95
2022-10-13T15:44:00.749Z,16.43
2022-10-13T15:46:31.779Z,11.93
2022-10-13T15:49:13.450Z,13.80
2022-10-13T15:51:49.764Z,14.03
2022-10-13T15:54:22.594Z,15.40
2022-10-13T15:56:52.502Z,16.23
2022-10-13T15:59:26.174Z,19.07
2022-10-13T16:01:55.939Z,18.70
2022-10-13T16:04:26.896Z,14.00
2022-10-13T16:06:57.029Z,14.63
2022-10-13T16:09:26.809Z,20.43
2022-10-13T16:11:56.885Z,12.90
2022-10-13T16:14:29.063Z,22.23
2022-10-13T16:17:01.410Z,19.67
2022-10-13T16:19:33.690Z,15.60
2022-10-13T16:22:05.275Z,16.27
2022-10-13T16:24:35.145Z,21.37
2022-10-13T16:27:07.906Z,32.60
2022-10-13T16:29:37.846Z,32.47
2022-10-13T16:32:07.925Z,18.87
2022-10-13T16:34:39.165Z,36.20
2022-10-13T16:37:08.888Z,29.70
2022-10-13T16:39:42.272Z,34.10
2022-10-13T16:42:13.263Z,29.30
2022-10-13T16:44:43.148Z,27.03
2022-10-13T16:47:17.458Z,32.47
2022-10-13T16:49:49.925Z,21.60
2022-10-13T16:52:20.522Z,36.90
2022-10-13T16:54:51.040Z,36.53
2022-10-13T16:57:21.024Z,35.93
2022-10-13T16:59:51.949Z,39.30
2022-10-13T17:02:21.209Z,47.17
2022-10-13T17:04:52.871Z,28.83
2022-10-13T17:07:24.621Z,23.90
2022-10-13T17:09:54.476Z,35.73
2022-10-13T17:12:24.049Z,34.73
2022-10-13T17:14:56.406Z,30.00
2022-10-13T17:17:26.513Z,32.17
2022-10-13T17:19:57.881Z,32.80
2022-10-13T17:22:27.952Z,33.40
2022-10-13T17:24:57.707Z,26.60
2022-10-13T17:27:36.090Z,29.83
2022-10-13T17:30:06.867Z,37.40
2022-10-13T17:32:40.116Z,37.60
2022-10-13T17:35:18.683Z,39.00
2022-10-13T17:37:50.777Z,32.33
2022-10-13T17:40:20.666Z,32.07
2022-10-13T17:42:50.684Z,36.10
2022-10-13T17:45:21.081Z,39.40
2022-10-13T17:47:54.787Z,43.53
2022-10-13T17:50:30.199Z,36.43
2022-10-13T17:53:00.443Z,40.73
2022-10-13T17:55:29.856Z,39.83
2022-10-13T17:57:59.161Z,41.23
2022-10-13T18:00:28.390Z,44.63
2022-10-13T18:02:58.476Z,44.10
2022-10-13T18:05:29.259Z,46.57
2022-10-13T18:07:59.864Z,37.00
2022-10-13T18:10:40.833Z,41.80
2022-10-13T18:13:19.562Z,34.63
2022-10-13T18:15:49.243Z,37.50
2022-10-13T18:18:20.339Z,39.20
2022-10-13T18:20:51.947Z,42.87
2022-10-13T18:23:21.483Z,60.13
2022-10-13T18:25:52.254Z,46.93
2022-10-13T18:28:24.166Z,43.80
2022-10-13T18:30:53.810Z,49.70
2022-10-13T18:33:23.186Z,49.07
2022-10-13T18:35:54.589Z,40.60
2022-10-13T18:38:28.018Z,45.27
2022-10-13T18:41:02.647Z,47.20
2022-10-13T18:43:32.602Z,65.53
2022-10-13T18:46:02.479Z,58.53
2022-10-13T18:48:32.168Z,60.43
2022-10-13T18:51:07.533Z,52.80
2022-10-13T18:53:37.757Z,59.43
2022-10-13T18:56:08.814Z,55.63
2022-10-13T18:58:38.760Z,54.80
2022-10-13T19:01:11.286Z,62.33
2022-10-13T19:03:43.031Z,57.03
2022-10-13T19:06:16.682Z,59.67
2022-10-13T19:08:48.899Z,67.50
2022-10-13T19:11:20.891Z,67.83
2022-10-13T19:13:51.870Z,59.07
2022-10-13T19:16:23.705Z,54.93
2022-10-13T19:18:54.841Z,63.03
2022-10-13T19:21:27.485Z,71.90
2022-10-13T19:24:01.026Z,71.00
2022-10-13T19:26:33.089Z,66.93
2022-10-13T19:29:04.975Z,58.37
2022-10-13T19:31:36.516Z,57.67
2022-10-13T19:34:10.077Z,64.37
2022-10-13T19:36:43.671Z,62.40
2022-10-13T19:39:17.366Z,61.53
2022-10-13T19:41:48.858Z,58.37
2022-10-13T19:44:20.568Z,54.70
2022-10-13T19:46:50.826Z,56.43
2022-10-13T19:49:23.333Z,62.67
2022-10-13T19:51:55.273Z,57.83
2022-10-13T19:54:30.170Z,56.67
2022-10-13T19:57:02.480Z,59.87
2022-10-13T19:59:32.702Z,56.63
2022-10-13T20:02:03.719Z,65.10
2022-10-13T20:04:33.497Z,57.97
2022-10-13T20:07:05.925Z,72.93
2022-10-13T20:09:36.745Z,65.90
2022-10-13T20:12:06.734Z,66.70
2022-10-13T20:14:43.309Z,70.03
2022-10-13T20:17:13.226Z,53.10
2022-10-13T20:19:43.907Z,65.60
2022-10-13T20:22:15.950Z,54.27
2022-10-13T20:24:46.850Z,51.53
2022-10-13T20:27:17.361Z,57.23
2022-10-13T20:29:47.143Z,63.80
2022-10-13T20:32:17.777Z,55.90
2022-10-13T20:34:47.412Z,57.70
2022-10-13T20:37:29.000Z,63.93
2022-10-13T20:40:07.640Z,64.47
2022-10-13T20:42:38.099Z,67.63
2022-10-13T20:45:09.533Z,65.73
2022-10-13T20:47:40.707Z,65.97
2022-10-13T20:50:11.763Z,73.60
2022-10-13T20:52:46.423Z,67.73
2022-10-13T20:55:16.379Z,71.50
2022-10-13T20:57:46.971Z,65.10
2022-10-13T21:00:19.316Z,62.47
2022-10-13T21:02:51.216Z,59.20
2022-10-13T21:05:23.835Z,60.77
2022-10-13T21:07:55.847Z,73.03
2022-10-13T21:10:25.507Z,83.37
2022-10-13T21:12:55.543Z,70.70
2022-10-13T21:15:25.483Z,66.17
2022-10-13T21:17:55.403Z,66.27
2022-10-13T21:20:25.560Z,60.37
2022-10-13T21:22:56.962Z,61.97
2022-10-13T21:25:26.647Z,72.03
2022-10-13T21:28:02.904Z,73.43
2022-10-13T21:30:33.451Z,71.93
2022-10-13T21:33:03.342Z,70.97
2022-10-13T21:35:32.558Z,67.27
2022-10-13T21:38:03.662Z,73.17
2022-10-13T21:40:33.574Z,60.83
2022-10-13T21:43:03.052Z,62.53
2022-10-13T21:45:34.217Z,66.83
2022-10-13T21:48:03.698Z,67.30
2022-10-13T21:50:32.678Z,68.07
2022-10-13T21:53:04.160Z,62.17
2022-10-13T21:55:33.660Z,60.50
2022-10-13T21:58:05.398Z,80.23
2022-10-13T22:00:36.280Z,77.93
2022-10-13T22:03:06.650Z,85.57
2022-10-13T22:05:37.586Z,78.37
2022-10-13T22:08:09.183Z,73.43
2022-10-13T22:10:39.181Z,74.73
2022-10-13T22:13:08.727Z,70.40
2022-10-13T22:15:38.017Z,74.50
2022-10-13T22:18:07.986Z,67.53
2022-10-13T22:20:38.277Z,73.93
2022-10-13T22:23:09.473Z,70.97
2022-10-13T22:25:46.172Z,75.83
2022-10-13T22:28:16.184Z,64.40
2022-10-13T22:30:46.071Z,65.03
2022-10-13T22:33:15.441Z,63.30
2022-10-13T22:35:47.790Z,61.13
2022-10-13T22:38:20.298Z,60.53
2022-10-13T22:40:50.340Z,59.97
2022-10-13T22:43:19.496Z,62.27
2022-10-13T22:45:52.665Z,55.17
2022-10-13T22:48:22.327Z,59.67
2022-10-13T22:50:51.652Z,58.47
2022-10-13T22:53:22.656Z,68.80
2022-10-13T22:55:52.512Z,65.37
2022-10-13T22:58:22.501Z,59.47
2022-10-13T23:00:52.449Z,53.87
2022-10-13T23:03:21.798Z,62.07
2022-10-13T23:05:52.521Z,60.67
2022-10-13T23:08:23.572Z,56.50
2022-10-13T23:10:53.553Z,56.30
2022-10-13T23:13:25.364Z,55.00
2022-10-13T23:15:56.508Z,60.07
2022-10-13T23:18:29.350Z,62.87
2022-10-13T23:20:58.900Z,60.33
2022-10-13T23:23:29.773Z,51.07
2022-10-13T23:26:03.248Z,59.93
2022-10-13T23:28:33.617Z,61.13
2022-10-13T23:31:04.576Z,56.10
2022-10-13T23:33:34.296Z,59.03
2022-10-13T23:36:05.216Z,56.63
2022-10-13T23:38:36.347Z,59.77
2022-10-13T23:41:07.984Z,60.23
2022-10-13T23:43:39.273Z,59.50
2022-10-13T23:46:10.820Z,69.60
2022-10-13T23:48:40.886Z,66.40
2022-10-13T23:51:12.860Z,58.63
2022-10-13T23:53:45.195Z,62.50
2022-10-13T23:56:15.865Z,62.03
2022-10-13T23:58:45.843Z,71.70
